Time;durP1;ratioP1;P1;durP2;ratioP2;P2;SDS_P1;SDS_P2;PMS_P1;PMS_P2;Temp;Humidity;BMP_temperature;BMP_pressure;BME280_temperature;BME280_humidity;BME280_pressure;Samples;Min_cycle;Max_cycle;Signal;HPM_P1;HPM_P2
2022/04/08 00:02:24;;;;;;;5.05;2.08;;;;;;;8.38;48.73;97887.59;4990575;28;20125;-73
2022/04/08 00:04:51;;;;;;;7.80;1.45;;;;;;;9.04;47.01;97886.28;4990750;28;20053;-73
2022/04/08 00:07:17;;;;;;;5.13;1.30;;;;;;;8.65;47.74;97884.75;4990313;28;20110;-73
2022/04/08 00:09:44;;;;;;;11.30;1.60;;;;;;;8.76;47.47;97892.06;4990546;28;20053;-73
2022/04/08 00:12:10;;;;;;;6.10;1.60;;;;;;;9.18;47.20;97900.34;4990679;28;20130;-73
2022/04/08 00:14:37;;;;;;;10.52;1.98;;;;;;;8.90;47.32;97906.94;4990489;28;20069;-73
2022/04/08 00:17:04;;;;;;;6.35;1.15;;;;;;;8.56;47.39;97893.00;4989415;28;20062;-73
2022/04/08 00:19:32;;;;;;;5.57;1.50;;;;;;;8.47;48.23;97909.50;4992972;28;20475;-73
2022/04/08 00:21:58;;;;;;;10.25;1.73;;;;;;;8.52;48.42;97907.84;4993266;28;20046;-73
2022/04/08 00:24:24;;;;;;;7.07;1.70;;;;;;;8.73;48.28;97924.56;4994149;28;20141;-72
2022/04/08 00:26:51;;;;;;;7.03;1.45;;;;;;;9.11;47.25;97920.97;4993785;28;20481;-73
2022/04/08 00:29:18;;;;;;;7.63;1.33;;;;;;;8.81;47.58;97924.28;4993800;28;20046;-73
2022/04/08 00:31:44;;;;;;;4.55;1.10;;;;;;;8.63;48.82;97918.88;4994274;28;20157;-73
2022/04/08 00:34:11;;;;;;;5.35;1.40;;;;;;;8.81;48.07;97916.28;4993973;28;20057;-73
2022/04/08 00:36:38;;;;;;;10.93;1.55;;;;;;;8.60;48.18;97936.97;4995086;28;20060;-73
2022/04/08 00:39:05;;;;;;;6.35;1.38;;;;;;;8.60;46.90;97945.00;4993655;28;20472;-74
2022/04/08 00:41:32;;;;;;;4.53;1.20;;;;;;;8.68;47.33;97913.69;4993731;28;20053;-73
2022/04/08 00:43:58;;;;;;;3.80;1.05;;;;;;;8.76;46.81;97946.34;4993513;28;20490;-72
2022/04/08 00:46:25;;;;;;;4.03;1.20;;;;;;;8.78;46.70;97943.44;4993948;28;20478;-72
2022/04/08 00:48:51;;;;;;;8.75;1.27;;;;;;;8.85;46.74;97949.56;4993314;28;20152;-72
2022/04/08 00:51:18;;;;;;;5.25;0.88;;;;;;;8.80;46.74;97968.09;4993767;28;20133;-72
2022/04/08 00:53:45;;;;;;;11.40;1.80;;;;;;;8.83;46.54;97981.84;4993215;28;20065;-72
2022/04/08 00:56:12;;;;;;;4.28;1.25;;;;;;;8.38;47.27;97981.91;4993825;28;20177;-72
2022/04/08 00:58:38;;;;;;;3.20;1.00;;;;;;;8.80;46.39;97978.78;4987643;28;20050;-74
2022/04/08 01:01:05;;;;;;;4.00;1.20;;;;;;;8.74;46.49;98003.72;4993242;28;20134;-73
2022/04/08 01:03:31;;;;;;;4.43;1.23;;;;;;;9.36;45.38;98009.28;4984929;28;20063;-72
2022/04/08 01:09:46;;;;;;;6.60;1.27;;;;;;;8.98;45.80;98047.56;4973587;28;20399;-72
2022/04/08 01:12:13;;;;;;;3.70;0.85;;;;;;;8.81;46.29;98037.38;4984940;28;20050;-73
2022/04/08 01:14:40;;;;;;;5.40;1.10;;;;;;;8.85;46.80;98064.53;4993883;28;20121;-73
2022/04/08 01:17:07;;;;;;;5.00;1.17;;;;;;;8.81;46.61;98058.78;4992562;28;20142;-72
2022/04/08 01:19:33;;;;;;;7.60;0.98;;;;;;;8.85;46.58;98076.03;4993930;28;20050;-72
2022/04/08 01:22:00;;;;;;;8.32;1.45;;;;;;;8.58;47.60;98078.03;4992848;28;20414;-72
2022/04/08 01:24:28;;;;;;;2.38;0.70;;;;;;;9.04;46.41;98087.66;4991911;28;20125;-73
2022/04/08 01:26:55;;;;;;;2.85;1.00;;;;;;;8.38;47.34;98094.13;4986092;28;20125;-72
2022/04/08 01:29:22;;;;;;;6.93;1.05;;;;;;;8.79;46.83;98092.94;4993472;28;20046;-73
2022/04/08 01:31:48;;;;;;;2.97;0.80;;;;;;;8.57;47.35;98112.94;4992109;28;20141;-73
2022/04/08 01:34:16;;;;;;;5.38;1.10;;;;;;;8.56;47.30;98111.31;4992939;28;20101;-73
2022/04/08 01:36:42;;;;;;;4.47;0.63;;;;;;;9.01;46.01;98103.31;4985447;28;20486;-74
2022/04/08 01:39:09;;;;;;;4.78;0.90;;;;;;;8.93;46.03;98114.25;5002078;28;20066;-73
2022/04/08 01:41:35;;;;;;;2.13;0.60;;;;;;;8.86;46.37;98138.34;4991652;28;20046;-73
2022/04/08 01:44:02;;;;;;;3.05;0.77;;;;;;;8.89;46.38;98143.28;4992575;28;20133;-73
2022/04/08 01:46:29;;;;;;;5.50;1.27;;;;;;;9.08;45.50;98142.34;4992491;28;20046;-73
2022/04/08 01:48:55;;;;;;;4.90;0.98;;;;;;;9.27;45.11;98146.00;4988767;28;20105;-73
2022/04/08 01:51:22;;;;;;;5.63;1.65;;;;;;;8.78;46.20;98150.13;4991011;28;20453;-73
2022/04/08 01:53:48;;;;;;;6.38;0.90;;;;;;;8.48;46.87;98159.66;4992778;28;20105;-73
2022/04/08 01:56:15;;;;;;;5.35;1.10;;;;;;;8.72;46.34;98155.47;4992238;28;20078;-73
2022/04/08 01:58:42;;;;;;;4.78;0.88;;;;;;;9.07;45.64;98167.47;4991501;28;20050;-73
2022/04/08 02:01:08;;;;;;;2.95;0.80;;;;;;;8.88;46.19;98165.69;4982917;28;20132;-73
2022/04/08 02:03:35;;;;;;;4.30;1.50;;;;;;;8.70;46.51;98171.72;4991257;28;20128;-73
2022/04/08 02:06:01;;;;;;;5.22;0.90;;;;;;;8.87;46.09;98172.06;4987713;28;20137;-73
2022/04/08 02:08:27;;;;;;;4.05;0.70;;;;;;;8.55;47.12;98169.28;4991512;28;20137;-73
2022/04/08 02:10:54;;;;;;;4.38;1.10;;;;;;;9.06;45.43;98171.19;4983836;28;20474;-73
2022/04/08 02:13:21;;;;;;;6.90;1.00;;;;;;;9.00;45.72;98181.91;4993375;28;20420;-73
2022/04/08 02:15:47;;;;;;;2.65;0.77;;;;;;;8.82;45.70;98193.28;4992393;28;20073;-73
2022/04/08 02:18:14;;;;;;;6.80;1.85;;;;;;;8.97;45.55;98193.84;4991848;28;20058;-73
2022/04/08 02:20:41;;;;;;;5.05;0.95;;;;;;;8.74;45.82;98205.00;4991493;28;20077;-73
2022/04/08 02:23:08;;;;;;;4.47;0.95;;;;;;;8.28;46.20;98205.09;4992620;28;20137;-73
2022/04/08 02:25:35;;;;;;;5.47;1.10;;;;;;;9.04;44.42;98209.84;4990408;28;20129;-73
2022/04/08 02:28:02;;;;;;;5.43;1.55;;;;;;;9.18;44.11;98218.66;4992029;28;20473;-73
2022/04/08 02:30:29;;;;;;;7.68;0.93;;;;;;;8.92;44.49;98207.03;4990697;28;20046;-73
2022/04/08 02:32:57;;;;;;;5.20;1.10;;;;;;;9.04;44.48;98224.03;4991016;28;20228;-73
2022/04/08 02:35:23;;;;;;;4.95;1.10;;;;;;;9.08;44.07;98235.97;4992885;28;20075;-73
2022/04/08 02:37:51;;;;;;;8.55;1.15;;;;;;;8.55;45.07;98227.28;4992126;28;20121;-73
2022/04/08 02:40:18;;;;;;;5.03;0.90;;;;;;;9.09;43.85;98234.09;4991493;28;20454;-73
2022/04/08 02:42:44;;;;;;;7.18;1.52;;;;;;;9.60;42.93;98235.97;4991330;28;20050;-73
2022/04/08 02:45:11;;;;;;;5.15;0.77;;;;;;;9.39;43.15;98245.13;4991713;28;20046;-73
2022/04/08 02:47:43;;;;;;;2.55;0.80;;;;;;;9.09;43.66;98240.28;4991857;28;20141;-73
2022/04/08 02:50:11;;;;;;;7.18;1.10;;;;;;;9.13;43.65;98245.19;4991702;28;20081;-73
2022/04/08 02:52:37;;;;;;;6.63;0.90;;;;;;;9.48;43.22;98249.22;4991624;28;20078;-73
2022/04/08 02:55:05;;;;;;;5.20;0.88;;;;;;;9.21;43.42;98251.16;4991312;28;20121;-73
2022/04/08 02:57:31;;;;;;;6.20;1.50;;;;;;;9.78;42.31;98260.16;4982340;28;20060;-73
2022/04/08 03:00:01;;;;;;;5.45;1.20;;;;;;;8.70;44.71;98251.09;4984441;28;20138;-73
2022/04/08 03:02:27;;;;;;;7.95;1.58;;;;;;;8.36;45.52;98253.81;4991010;28;20105;-73
2022/04/08 03:04:54;;;;;;;4.25;1.10;;;;;;;9.45;43.34;98260.34;4991272;28;20050;-73
2022/04/08 03:07:20;;;;;;;4.22;0.88;;;;;;;8.98;44.17;98253.47;4985357;28;20081;-74
2022/04/08 03:09:47;;;;;;;4.75;1.00;;;;;;;8.84;44.88;98271.41;4991012;28;20048;-73
2022/04/08 03:12:13;;;;;;;7.55;1.55;;;;;;;9.06;44.50;98286.19;4990957;28;20053;-73
2022/04/08 03:14:40;;;;;;;3.78;1.02;;;;;;;8.88;45.15;98280.66;4991046;28;20138;-72
2022/04/08 03:17:06;;;;;;;7.45;1.17;;;;;;;9.25;44.38;98292.53;4991488;28;20104;-72
2022/04/08 03:19:32;;;;;;;2.53;0.88;;;;;;;9.35;44.37;98300.09;4989532;28;20088;-73
2022/04/08 03:21:59;;;;;;;4.40;0.95;;;;;;;9.25;44.54;98291.69;4990867;28;20081;-73
2022/04/08 03:24:26;;;;;;;3.97;0.82;;;;;;;9.11;44.66;98300.78;4992094;28;20537;-72
2022/04/08 03:26:52;;;;;;;7.88;1.38;;;;;;;8.90;44.65;98307.19;4990901;28;20046;-73
2022/04/08 03:29:18;;;;;;;4.30;0.90;;;;;;;8.84;45.42;98306.97;4986139;28;20399;-73
2022/04/08 03:31:45;;;;;;;4.40;0.60;;;;;;;9.00;45.30;98311.09;4989830;28;20048;-73
2022/04/08 03:34:12;;;;;;;3.90;1.13;;;;;;;9.04;45.41;98316.84;4990024;28;20046;-73
2022/04/08 03:36:38;;;;;;;3.88;1.00;;;;;;;8.96;45.67;98320.56;4989810;28;20069;-73
2022/04/08 03:39:05;;;;;;;6.93;0.85;;;;;;;9.07;46.16;98327.94;4991604;28;20125;-74
2022/04/08 03:41:37;;;;;;;3.63;0.80;;;;;;;8.47;47.46;98343.22;4991128;28;20054;-73
2022/04/08 03:44:04;;;;;;;4.60;0.93;;;;;;;8.96;46.25;98344.63;4990126;28;20097;-73
2022/04/08 03:46:30;;;;;;;2.78;1.05;;;;;;;9.33;45.68;98347.66;4989291;28;20077;-73
2022/04/08 03:48:57;;;;;;;3.38;0.70;;;;;;;8.83;47.18;98352.66;4990378;28;20054;-73
2022/04/08 03:51:23;;;;;;;2.55;0.77;;;;;;;8.67;47.27;98350.38;4990044;28;20133;-73
2022/04/08 03:53:50;;;;;;;7.18;1.17;;;;;;;8.77;47.51;98369.50;4991443;28;20046;-73
2022/04/08 03:56:16;;;;;;;3.92;0.73;;;;;;;9.22;46.35;98367.81;4994308;28;20171;-73
2022/04/08 03:58:43;;;;;;;3.75;0.70;;;;;;;8.95;46.63;98375.03;4993889;28;20101;-73
2022/04/08 04:01:09;;;;;;;4.22;1.35;;;;;;;8.52;47.14;98371.97;4994689;28;20391;-73
2022/04/08 04:03:35;;;;;;;2.47;0.80;;;;;;;9.06;46.21;98385.13;4994397;28;20058;-73
2022/04/08 04:06:03;;;;;;;2.90;1.00;;;;;;;9.01;46.80;98390.28;4994101;28;20112;-73
2022/04/08 04:08:29;;;;;;;5.80;1.00;;;;;;;8.65;48.47;98403.25;4992931;28;20049;-73
2022/04/08 04:10:56;;;;;;;5.78;1.00;;;;;;;8.68;49.45;98435.72;4995301;28;20133;-73
2022/04/08 04:13:22;;;;;;;2.92;0.50;;;;;;;7.82;51.44;98432.78;4994166;28;20054;-73
2022/04/08 04:15:50;;;;;;;2.63;0.70;;;;;;;7.74;52.23;98439.13;4993916;28;20081;-73
2022/04/08 04:18:16;;;;;;;4.97;0.70;;;;;;;7.88;52.36;98445.34;4993784;28;20043;-73
2022/04/08 04:20:43;;;;;;;3.00;0.77;;;;;;;8.17;52.23;98459.44;4993859;28;20129;-73
2022/04/08 04:23:09;;;;;;;3.35;0.63;;;;;;;8.07;51.94;98459.81;4993194;28;20058;-73
2022/04/08 04:25:36;;;;;;;1.75;0.70;;;;;;;7.84;52.76;98473.47;4992915;28;20133;-73
2022/04/08 04:28:03;;;;;;;2.85;0.77;;;;;;;7.86;52.23;98484.78;4990663;28;20065;-73
2022/04/08 04:30:29;;;;;;;3.22;0.90;;;;;;;8.29;51.66;98497.91;4992512;28;20100;-73
2022/04/08 04:32:56;;;;;;;3.88;0.73;;;;;;;8.30;51.52;98515.59;4994188;28;20046;-73
2022/04/08 04:35:23;;;;;;;1.98;0.80;;;;;;;7.77;52.63;98513.44;4994396;28;20079;-73
2022/04/08 04:37:49;;;;;;;4.68;0.85;;;;;;;8.15;51.73;98521.06;4993108;28;20133;-73
2022/04/08 04:40:16;;;;;;;3.47;0.93;;;;;;;8.83;50.22;98529.13;4992926;28;20050;-73
2022/04/08 04:42:42;;;;;;;2.75;1.45;;;;;;;7.81;51.75;98537.88;4993629;28;20129;-73
2022/04/08 04:45:10;;;;;;;5.50;1.20;;;;;;;8.25;51.21;98542.06;4993265;28;20070;-72
2022/04/08 04:47:38;;;;;;;6.35;0.77;;;;;;;7.69;50.84;98552.81;4992411;28;20081;-73
2022/04/08 04:50:05;;;;;;;5.40;0.55;;;;;;;8.09;49.83;98557.41;4992883;28;20129;-73
2022/04/08 04:52:31;;;;;;;4.30;1.08;;;;;;;8.13;49.14;98564.00;4993312;28;20486;-73
2022/04/08 04:54:58;;;;;;;5.20;1.10;;;;;;;7.87;48.94;98572.66;4991907;28;20070;-72
2022/04/08 04:57:24;;;;;;;7.43;1.23;;;;;;;8.52;48.59;98583.09;5000291;28;20403;-73
2022/04/08 04:59:51;;;;;;;3.85;0.90;;;;;;;8.47;48.08;98593.53;4990120;28;20106;-72
2022/04/08 05:02:17;;;;;;;5.82;1.10;;;;;;;8.73;49.16;98592.84;4992028;28;20534;-73
2022/04/08 05:04:44;;;;;;;3.92;1.33;;;;;;;8.64;48.67;98594.03;4992947;28;20046;-73
2022/04/08 05:07:10;;;;;;;3.10;0.88;;;;;;;8.26;49.30;98605.16;4990678;28;20482;-73
2022/04/08 05:09:41;;;;;;;5.00;1.27;;;;;;;8.10;49.94;98622.31;4992733;28;20074;-72
2022/04/08 05:12:10;;;;;;;3.17;1.05;;;;;;;8.48;48.84;98620.06;4992334;28;20137;-72
2022/04/08 05:14:36;;;;;;;5.10;0.95;;;;;;;8.03;49.86;98622.28;4992887;28;20058;-72
2022/04/08 05:17:03;;;;;;;4.28;1.00;;;;;;;8.56;49.09;98617.22;4985871;28;20070;-72
2022/04/08 05:19:30;;;;;;;5.53;1.60;;;;;;;8.55;49.13;98634.28;4993420;28;20124;-73
2022/04/08 05:21:56;;;;;;;4.18;1.40;;;;;;;9.05;48.09;98634.88;4993616;28;20550;-73
2022/04/08 05:24:23;;;;;;;2.53;0.85;;;;;;;8.82;48.65;98629.91;4992822;28;20133;-73
2022/04/08 05:26:49;;;;;;;5.13;1.33;;;;;;;8.33;49.18;98641.59;4993343;28;20165;-73
2022/04/08 05:29:15;;;;;;;1.67;0.55;;;;;;;8.02;50.12;98659.84;4990934;28;20073;-73
2022/04/08 05:31:42;;;;;;;5.80;1.02;;;;;;;8.26;49.17;98654.09;4992369;28;20057;-73
2022/04/08 05:34:09;;;;;;;4.20;1.00;;;;;;;9.06;47.89;98652.59;4992614;28;20478;-73
2022/04/08 05:36:35;;;;;;;6.20;1.20;;;;;;;8.78;48.64;98667.91;4993018;28;20105;-73
2022/04/08 05:39:02;;;;;;;3.33;0.65;;;;;;;8.61;48.23;98673.59;4992441;28;20133;-72
2022/04/08 05:41:28;;;;;;;5.07;2.20;;;;;;;8.22;49.97;98679.50;4988215;28;20074;-72
2022/04/08 05:43:55;;;;;;;3.13;0.80;;;;;;;7.76;50.34;98677.28;5001340;28;20121;-72
2022/04/08 05:46:22;;;;;;;15.07;2.17;;;;;;;8.39;49.10;98682.72;4998134;28;20077;-72
2022/04/08 05:48:48;;;;;;;3.38;0.90;;;;;;;8.54;48.28;98695.97;4998035;28;20066;-72
2022/04/08 05:51:15;;;;;;;3.35;0.85;;;;;;;8.71;48.69;98681.28;5000398;28;20513;-72
2022/04/08 05:53:41;;;;;;;5.78;0.93;;;;;;;9.01;47.69;98697.84;5000142;28;20133;-72
2022/04/08 05:56:08;;;;;;;4.22;0.95;;;;;;;8.07;50.07;98700.97;5000725;28;20065;-72
2022/04/08 05:58:34;;;;;;;9.60;1.13;;;;;;;8.82;47.98;98699.41;4999097;28;20057;-73
2022/04/08 06:01:01;;;;;;;4.00;1.10;;;;;;;9.04;47.67;98694.78;4992881;28;20432;-73
2022/04/08 06:03:28;;;;;;;2.72;1.00;;;;;;;8.42;49.04;98702.88;4992952;28;20077;-73
2022/04/08 06:05:54;;;;;;;5.55;0.95;;;;;;;8.65;48.44;98707.97;4987130;28;20479;-72
2022/04/08 06:08:22;;;;;;;3.60;1.10;;;;;;;8.81;47.73;98704.94;4991829;28;20058;-72
2022/04/08 06:10:48;;;;;;;3.60;0.88;;;;;;;8.29;49.34;98708.94;4992636;28;20153;-72
2022/04/08 06:13:16;;;;;;;4.93;1.05;;;;;;;8.22;48.90;98724.09;4991877;28;20053;-72
2022/04/08 06:15:43;;;;;;;6.00;0.95;;;;;;;8.92;48.51;98723.13;4991723;28;20043;-72
2022/04/08 06:18:10;;;;;;;3.67;1.00;;;;;;;8.71;48.25;98726.72;4992222;28;20053;-72
2022/04/08 06:20:36;;;;;;;5.10;1.13;;;;;;;8.02;49.44;98718.59;4990752;28;20070;-72
2022/04/08 06:23:03;;;;;;;4.53;1.08;;;;;;;8.24;49.38;98730.91;4991226;28;20088;-72
2022/04/08 06:25:29;;;;;;;5.15;0.90;;;;;;;8.68;48.52;98723.56;4992415;28;20077;-72
2022/04/08 06:27:58;;;;;;;5.55;1.10;;;;;;;8.89;47.33;98725.38;4991183;28;20130;-73
2022/04/08 06:30:25;;;;;;;3.33;0.90;;;;;;;8.42;48.21;98746.44;4991227;28;20057;-72
2022/04/08 06:32:52;;;;;;;3.63;1.58;;;;;;;8.58;48.01;98740.00;4992101;28;20050;-72
2022/04/08 06:35:18;;;;;;;4.10;1.23;;;;;;;8.74;47.64;98747.69;4985030;28;20141;-72
2022/04/08 06:37:45;;;;;;;3.30;0.90;;;;;;;8.80;47.72;98738.06;4991786;28;20142;-72
2022/04/08 06:40:11;;;;;;;7.43;1.30;;;;;;;9.23;46.62;98743.19;4990270;28;20446;-73
2022/04/08 06:42:38;;;;;;;2.17;0.75;;;;;;;8.75;47.40;98752.03;4991679;28;20069;-73
2022/04/08 06:45:08;;;;;;;2.92;0.90;;;;;;;8.75;47.86;98762.72;4991752;28;20048;-73
2022/04/08 06:47:48;;;;;;;10.13;1.15;;;;;;;9.35;47.10;98781.78;4991174;28;20113;-73
2022/04/08 06:50:16;;;;;;;4.13;0.70;;;;;;;8.92;47.94;98821.22;4991444;28;20046;-73
2022/04/08 06:52:42;;;;;;;4.65;0.90;;;;;;;8.13;48.92;98825.75;4991549;28;20101;-72
2022/04/08 06:55:09;;;;;;;5.13;0.77;;;;;;;7.93;48.72;98827.38;4991562;28;20045;-71
2022/04/08 06:57:37;;;;;;;3.03;1.00;;;;;;;8.10;48.29;98835.97;4992465;28;20043;-73
2022/04/08 07:00:05;;;;;;;4.57;1.00;;;;;;;7.76;48.68;98831.28;4989668;28;20530;-72
2022/04/08 07:02:32;;;;;;;12.63;3.40;;;;;;;7.27;49.32;98834.56;4992740;28;20574;-72
2022/04/08 07:04:58;;;;;;;4.63;1.30;;;;;;;7.66;49.46;98851.06;4991590;28;20042;-71
2022/04/08 07:07:29;;;;;;;5.32;1.30;;;;;;;7.40;50.21;98864.09;4990970;28;20133;-72
2022/04/08 07:09:57;;;;;;;5.72;1.50;;;;;;;7.23;49.97;98882.13;4993567;28;20066;-73
2022/04/08 07:12:25;;;;;;;9.07;3.05;;;;;;;6.71;50.93;98875.81;4991068;28;20084;-71
2022/04/08 07:14:52;;;;;;;9.52;3.40;;;;;;;6.19;52.20;98855.22;4990435;28;20518;-72
2022/04/08 07:17:33;;;;;;;13.32;5.28;;;;;;;6.90;50.27;98852.31;4991024;28;20050;-72
2022/04/08 07:20:16;;;;;;;5.13;2.45;;;;;;;7.30;49.68;98859.03;4980332;28;20053;-72
2022/04/08 07:22:44;;;;;;;7.72;1.42;;;;;;;7.50;49.07;98863.78;4991544;28;20073;-72
2022/04/08 07:25:11;;;;;;;5.82;1.05;;;;;;;7.93;48.31;98864.75;4991901;28;20150;-72
2022/04/08 07:27:52;;;;;;;8.15;1.40;;;;;;;7.22;49.23;98866.28;4970907;28;20086;-73
2022/04/08 07:30:20;;;;;;;4.68;1.50;;;;;;;8.04;47.89;98869.59;4970964;28;20129;-73
2022/04/08 07:32:50;;;;;;;7.78;1.30;;;;;;;7.91;47.78;98877.47;4971529;28;20051;-73
2022/04/08 07:35:17;;;;;;;4.63;1.10;;;;;;;8.13;48.36;98881.84;4971955;28;20482;-73
2022/04/08 07:37:43;;;;;;;7.38;1.20;;;;;;;8.23;48.03;98881.53;4971016;28;20121;-73
2022/04/08 07:40:11;;;;;;;8.38;2.95;;;;;;;7.75;48.92;98883.00;4972136;28;20121;-72
2022/04/08 07:42:39;;;;;;;11.88;3.45;;;;;;;8.35;47.95;98884.50;4971540;28;20133;-72
2022/04/08 07:45:06;;;;;;;11.43;4.80;;;;;;;8.58;47.49;98892.34;4962265;28;20126;-72
2022/04/08 07:47:33;;;;;;;8.15;1.60;;;;;;;8.97;47.71;98886.47;4971133;28;20078;-71
2022/04/08 07:50:01;;;;;;;5.35;0.93;;;;;;;9.15;47.87;98902.03;4971721;28;20388;-71
2022/04/08 07:52:28;;;;;;;7.40;2.10;;;;;;;9.62;45.89;98899.69;4971509;28;20221;-73
2022/04/08 07:54:55;;;;;;;6.70;1.30;;;;;;;9.08;46.96;98901.97;4970813;28;20122;-72
2022/04/08 07:57:22;;;;;;;2.90;0.80;;;;;;;10.31;44.23;98912.09;4971443;28;20098;-72
2022/04/08 07:59:49;;;;;;;6.82;1.20;;;;;;;12.02;41.55;98904.09;4971461;28;20074;-73
2022/04/08 08:02:15;;;;;;;16.65;1.52;;;;;;;13.13;39.38;98903.56;4971149;28;20138;-73
2022/04/08 08:04:47;;;;;;;8.70;1.95;;;;;;;13.82;37.31;98909.69;4971087;28;20498;-72
2022/04/08 08:07:13;;;;;;;9.15;1.58;;;;;;;12.55;37.88;98915.34;4970040;28;20178;-73
2022/04/08 08:09:40;;;;;;;8.75;2.28;;;;;;;13.19;37.82;98912.63;4971938;28;20042;-75
2022/04/08 08:12:19;;;;;;;11.80;1.92;;;;;;;13.69;36.76;98913.34;4990390;28;20056;-74
2022/04/08 08:14:46;;;;;;;11.35;2.00;;;;;;;13.75;36.76;98914.31;4990838;28;20046;-73
2022/04/08 08:17:12;;;;;;;11.32;2.25;;;;;;;13.81;35.17;98914.28;4994292;28;20137;-73
2022/04/08 08:19:39;;;;;;;8.43;1.70;;;;;;;13.62;35.99;98922.53;4995329;28;20121;-73
2022/04/08 08:22:05;;;;;;;12.90;2.10;;;;;;;14.93;33.57;98921.84;4990108;28;20078;-73
2022/04/08 08:24:32;;;;;;;14.45;2.90;;;;;;;15.37;33.08;98924.25;4988823;28;20538;-73
2022/04/08 08:26:58;;;;;;;10.00;2.25;;;;;;;14.09;34.40;98931.78;4989488;28;20076;-73
2022/04/08 08:29:25;;;;;;;13.25;2.15;;;;;;;14.60;32.60;98921.50;4980682;28;20046;-72
2022/04/08 08:31:51;;;;;;;11.20;2.15;;;;;;;14.03;34.28;98941.56;4990177;28;20133;-72
2022/04/08 08:34:20;;;;;;;13.15;2.22;;;;;;;13.76;34.06;98941.06;4990392;28;20046;-73
2022/04/08 08:36:47;;;;;;;13.15;2.40;;;;;;;14.09;33.84;98950.66;4988241;28;20561;-74
2022/04/08 08:39:14;;;;;;;13.35;1.95;;;;;;;13.55;33.69;98941.47;4990676;28;20049;-74
2022/04/08 08:41:40;;;;;;;8.98;1.92;;;;;;;13.25;34.55;98942.19;4994076;28;20050;-73
2022/04/08 08:44:07;;;;;;;16.63;2.33;;;;;;;13.32;34.48;98944.81;4992242;28;20065;-74
2022/04/08 08:46:34;;;;;;;16.50;2.45;;;;;;;12.76;33.86;98961.81;4992709;28;20423;-72
2022/04/08 08:49:03;;;;;;;11.95;2.90;;;;;;;13.23;33.30;98949.66;4983790;28;20121;-72
2022/04/08 08:51:35;;;;;;;10.63;2.65;;;;;;;13.70;32.81;98960.81;4992233;28;20133;-72
2022/04/08 08:54:01;;;;;;;11.43;2.38;;;;;;;11.83;35.22;98967.59;4992324;28;20137;-74
2022/04/08 08:56:28;;;;;;;9.98;1.88;;;;;;;12.64;33.80;98961.66;4989359;28;20078;-74
2022/04/08 08:58:55;;;;;;;10.95;1.73;;;;;;;12.24;34.20;98959.19;4992873;28;20133;-74
2022/04/08 09:01:21;;;;;;;15.65;2.53;;;;;;;12.74;32.81;98967.44;4988959;28;20135;-74
2022/04/08 09:03:48;;;;;;;13.07;2.17;;;;;;;12.50;32.79;98968.16;4993110;28;20050;-74
2022/04/08 09:06:16;;;;;;;11.63;1.42;;;;;;;12.75;32.21;98965.56;4993755;28;20466;-74
2022/04/08 09:08:42;;;;;;;15.25;2.45;;;;;;;12.86;32.22;98967.53;4994264;28;20121;-75
2022/04/08 09:11:09;;;;;;;15.80;2.28;;;;;;;12.19;33.88;98968.94;4994312;28;20049;-74
2022/04/08 09:13:44;;;;;;;12.68;2.17;;;;;;;12.68;32.16;98973.63;4994378;28;20070;-74
2022/04/08 09:16:10;;;;;;;14.52;2.00;;;;;;;12.28;32.32;98973.88;4993697;28;20069;-74
2022/04/08 09:18:41;;;;;;;7.20;2.08;;;;;;;11.86;33.59;98973.41;4987724;28;20073;-74
2022/04/08 09:21:08;;;;;;;15.93;2.20;;;;;;;11.18;33.60;98983.59;4976337;28;20101;-74
2022/04/08 09:23:35;;;;;;;13.95;2.38;;;;;;;12.54;33.15;98977.44;4993266;28;20108;-74
2022/04/08 09:26:07;;;;;;;13.00;2.05;;;;;;;12.51;31.73;98977.88;4986713;28;20039;-74
2022/04/08 09:28:38;;;;;;;14.63;2.72;;;;;;;12.25;32.48;98979.66;5005864;28;20567;-74
2022/04/08 09:31:05;;;;;;;11.40;1.90;;;;;;;11.80;32.46;98986.88;4993272;28;20549;-74
2022/04/08 09:33:32;;;;;;;11.45;2.42;;;;;;;11.91;31.90;98988.91;4994222;28;20133;-74
2022/04/08 09:35:59;;;;;;;12.00;1.65;;;;;;;12.52;31.49;98979.53;4992881;28;20110;-74
2022/04/08 09:38:27;;;;;;;15.02;2.53;;;;;;;12.76;30.93;98986.84;4993387;28;20047;-74
2022/04/08 09:41:07;;;;;;;11.32;2.00;;;;;;;12.43;31.43;98987.03;4992951;28;20053;-74
2022/04/08 09:43:36;;;;;;;9.40;1.90;;;;;;;12.00;31.79;98984.09;4993584;28;20105;-74
2022/04/08 09:46:31;;;;;;;11.25;1.95;;;;;;;11.77;32.34;98988.09;4992921;28;20033;-74
2022/04/08 09:48:58;;;;;;;14.02;2.35;;;;;;;12.36;32.10;98987.06;4978313;28;20042;-74
2022/04/08 09:51:26;;;;;;;13.65;1.90;;;;;;;11.74;32.60;98983.16;4991160;28;20141;-74
2022/04/08 09:53:55;;;;;;;7.47;1.67;;;;;;;11.78;31.66;98988.91;4992585;28;20121;-75
2022/04/08 09:56:23;;;;;;;9.93;2.38;;;;;;;13.03;29.89;98989.38;4989048;28;20046;-74
2022/04/08 09:59:12;;;;;;;14.82;2.72;;;;;;;14.15;28.94;98995.59;4992895;28;20134;-74
2022/04/08 10:01:40;;;;;;;12.63;1.90;;;;;;;13.24;29.30;98978.22;4993209;28;20125;-74
2022/04/08 10:04:08;;;;;;;10.65;1.40;;;;;;;13.63;29.01;98991.53;4993069;28;20568;-74
2022/04/08 10:06:36;;;;;;;13.45;2.20;;;;;;;12.78;30.07;98983.97;4992185;28;20085;-74
2022/04/08 10:09:06;;;;;;;8.52;2.08;;;;;;;13.73;28.58;98971.13;4993035;28;20455;-74
2022/04/08 10:11:51;;;;;;;9.52;2.15;;;;;;;13.13;29.27;98970.88;4992633;28;20054;-74
2022/04/08 10:14:39;;;;;;;7.78;1.73;;;;;;;13.14;28.79;98975.19;4991794;28;20106;-74
2022/04/08 10:17:06;;;;;;;7.82;1.85;;;;;;;12.65;29.93;98979.44;4992208;28;20129;-74
2022/04/08 10:19:33;;;;;;;6.22;1.35;;;;;;;12.60;30.43;98982.78;4993256;28;20057;-74
2022/04/08 10:22:00;;;;;;;7.90;1.77;;;;;;;12.71;30.02;98983.97;4991502;28;20173;-74
2022/04/08 10:24:31;;;;;;;6.47;1.48;;;;;;;12.35;30.48;98987.28;4987917;28;20081;-74
2022/04/08 10:27:09;;;;;;;6.53;1.50;;;;;;;12.34;29.94;98982.94;5001504;28;20133;-73
2022/04/08 10:29:36;;;;;;;8.27;1.58;;;;;;;12.28;29.62;98986.47;4990316;28;20096;-74
2022/04/08 10:32:14;;;;;;;6.65;1.75;;;;;;;12.09;29.61;98990.91;4990401;28;20411;-74
2022/04/08 10:34:41;;;;;;;8.38;1.13;;;;;;;11.93;29.00;98974.22;4992092;28;20130;-73
2022/04/08 10:37:24;;;;;;;13.82;1.90;;;;;;;12.55;28.70;98977.22;4992939;28;20133;-74
2022/04/08 10:39:59;;;;;;;6.45;1.65;;;;;;;12.76;28.22;98973.41;4991731;28;20076;-74
2022/04/08 10:42:28;;;;;;;16.25;1.45;;;;;;;13.46;27.62;98975.97;4992631;28;20097;-74
2022/04/08 10:44:55;;;;;;;9.32;1.52;;;;;;;13.53;26.78;98973.22;4991873;28;20490;-74
2022/04/08 10:47:23;;;;;;;10.52;1.20;;;;;;;12.85;27.77;98968.59;4993040;28;20046;-74
2022/04/08 10:49:56;;;;;;;8.70;1.27;;;;;;;14.09;26.77;98963.31;4992403;28;20085;-74
2022/04/08 10:52:27;;;;;;;7.22;1.45;;;;;;;12.96;27.88;98972.44;4992241;28;20137;-74
2022/04/08 10:55:08;;;;;;;14.82;1.77;;;;;;;12.46;28.64;98969.66;4992890;28;20129;-74
2022/04/08 10:57:40;;;;;;;18.30;1.80;;;;;;;12.04;30.03;98977.28;4991009;28;20141;-74
2022/04/08 11:00:16;;;;;;;10.23;1.90;;;;;;;12.08;31.57;98981.19;4992331;28;20471;-74
2022/04/08 11:02:44;;;;;;;8.40;1.45;;;;;;;12.59;32.19;98980.31;4992579;28;20046;-73
2022/04/08 11:05:13;;;;;;;10.30;1.85;;;;;;;11.89;34.18;98975.66;4992147;28;20070;-74
2022/04/08 11:07:44;;;;;;;8.70;1.70;;;;;;;12.68;32.81;98970.13;4992640;28;20050;-74
2022/04/08 11:10:12;;;;;;;;;;;;;;;12.36;33.36;98968.22;4993083;28;20133;-74
2022/04/08 11:12:50;;;;;;;9.32;2.03;;;;;;;12.37;33.01;98967.19;4992818;28;20251;-74
2022/04/08 11:15:19;;;;;;;10.57;2.20;;;;;;;11.92;33.57;98953.72;4992595;28;20097;-74
2022/04/08 11:17:46;;;;;;;7.47;1.77;;;;;;;11.89;33.06;98953.34;4993423;28;20125;-74
2022/04/08 11:20:14;;;;;;;4.90;1.30;;;;;;;11.79;33.85;98953.78;4992262;28;20055;-74
2022/04/08 11:22:42;;;;;;;6.88;1.33;;;;;;;11.61;33.56;98961.66;4992395;28;20069;-74
2022/04/08 11:25:17;;;;;;;16.55;2.08;;;;;;;11.48;34.11;98964.34;4991254;28;20070;-74
2022/04/08 11:27:44;;;;;;;14.90;1.63;;;;;;;12.40;32.51;98956.00;4991799;28;20487;-74
2022/04/08 11:30:10;;;;;;;15.32;2.30;;;;;;;12.46;31.93;98959.72;4991373;28;20457;-75
2022/04/08 11:32:39;;;;;;;8.10;1.90;;;;;;;12.53;31.24;98963.19;4991906;28;20056;-74
2022/04/08 11:35:13;;;;;;;10.98;1.42;;;;;;;13.64;29.06;98959.00;4991630;28;20073;-75
2022/04/08 11:37:39;;;;;;;4.55;1.30;;;;;;;13.98;28.96;98957.63;4985551;28;20145;-74
2022/04/08 11:40:07;;;;;;;7.03;1.40;;;;;;;14.68;28.02;98951.72;4992627;28;20120;-74
2022/04/08 11:42:34;;;;;;;20.23;1.70;;;;;;;15.92;26.13;98946.31;4990704;28;20081;-74
2022/04/08 11:45:01;;;;;;;5.07;1.40;;;;;;;13.81;27.53;98946.63;4990706;28;20058;-73